Time;durP1;ratioP1;P1;durP2;ratioP2;P2;SDS_P1;SDS_P2;PMS_P1;PMS_P2;Temp;Humidity;BMP_temperature;BMP_pressure;BME280_temperature;BME280_humidity;BME280_pressure;Samples;Min_cycle;Max_cycle;Signal;HPM_P1;HPM_P2
2021/10/22 00:00:32;;;;;;;204.83;194.37;;;;;;;;;;5031239;28;20481;-72
2021/10/22 00:03:01;;;;;;;196.10;186.00;;;;;;;;;;5018968;28;20482;-74
2021/10/22 00:05:28;;;;;;;200.77;189.90;;;;;;;;;;5022197;28;20449;-71
2021/10/22 00:07:55;;;;;;;196.10;185.80;;;;;;;;;;5036740;28;21128;-74
2021/10/22 00:10:22;;;;;;;200.23;189.60;;;;;;;;;;5035208;28;20441;-73
2021/10/22 00:12:49;;;;;;;202.67;192.27;;;;;;;;;;5033403;28;21005;-72
2021/10/22 00:15:17;;;;;;;211.73;200.63;;;;;;;;;;5034089;28;20465;-73
2021/10/22 00:17:44;;;;;;;214.83;203.87;;;;;;;;;;5035936;28;20452;-69
2021/10/22 00:20:12;;;;;;;217.30;206.30;;;;;;;;;;5029789;28;20478;-71
2021/10/22 00:22:40;;;;;;;221.13;210.20;;;;;;;;;;5016655;28;20481;-68
2021/10/22 00:25:07;;;;;;;226.13;214.83;;;;;;;;;;5035080;28;20447;-72
2021/10/22 00:27:35;;;;;;;220.47;208.47;;;;;;;;;;5036875;28;20455;-78
2021/10/22 00:30:02;;;;;;;210.00;199.30;;;;;;;;;;5035559;28;20441;-69
2021/10/22 00:32:29;;;;;;;189.43;179.40;;;;;;;;;;5033321;28;20983;-72
2021/10/22 00:34:56;;;;;;;182.63;172.77;;;;;;;;;;5021116;28;20466;-74
2021/10/22 00:37:24;;;;;;;175.13;165.27;;;;;;;;;;5021214;28;20460;-70
2021/10/22 00:39:52;;;;;;;180.73;170.90;;;;;;;;;;5035890;28;21003;-72
2021/10/22 00:42:19;;;;;;;173.23;163.80;;;;;;;;;;5021029;28;20481;-74
2021/10/22 00:44:48;;;;;;;169.63;160.13;;;;;;;;;;5020705;28;20457;-71
2021/10/22 00:47:15;;;;;;;164.70;155.50;;;;;;;;;;5020312;28;20442;-72
2021/10/22 00:49:42;;;;;;;166.43;157.03;;;;;;;;;;5031874;28;20448;-69
2021/10/22 00:52:10;;;;;;;161.70;152.70;;;;;;;;;;5018541;28;20472;-70
2021/10/22 00:54:39;;;;;;;166.40;157.47;;;;;;;;;;5030262;28;20452;-70
2021/10/22 00:57:06;;;;;;;163.10;154.33;;;;;;;;;;5027650;28;20453;-70
2021/10/22 00:59:34;;;;;;;163.97;154.97;;;;;;;;;;5018965;28;20512;-70
2021/10/22 01:02:01;;;;;;;159.40;150.73;;;;;;;;;;5035003;28;20497;-68
2021/10/22 01:04:28;;;;;;;162.20;153.50;;;;;;;;;;5037827;28;20458;-73
2021/10/22 01:06:56;;;;;;;166.47;157.63;;;;;;;;;;5035144;28;20459;-72
2021/10/22 01:09:23;;;;;;;164.90;156.17;;;;;;;;;;5030770;28;20452;-67
2021/10/22 01:11:51;;;;;;;163.57;154.57;;;;;;;;;;5012876;28;20466;-70
2021/10/22 01:14:19;;;;;;;164.87;156.17;;;;;;;;;;5013171;28;20445;-69
2021/10/22 01:16:46;;;;;;;169.20;160.43;;;;;;;;;;5031962;28;20464;-70
2021/10/22 01:19:14;;;;;;;169.53;160.50;;;;;;;;;;5033510;28;20919;-71
2021/10/22 01:21:43;;;;;;;174.37;165.40;;;;;;;;;;5014533;28;20485;-71
2021/10/22 01:24:11;;;;;;;178.70;169.70;;;;;;;;;;5033380;28;20453;-72
2021/10/22 01:26:38;;;;;;;189.93;180.63;;;;;;;;;;5031313;28;20966;-71
2021/10/22 01:29:05;;;;;;;186.80;177.00;;;;;;;;;;5034061;28;20448;-74
2021/10/22 01:31:33;;;;;;;186.47;176.93;;;;;;;;;;5018707;28;20477;-70
2021/10/22 01:34:00;;;;;;;184.00;174.13;;;;;;;;;;5014106;28;20455;-69
2021/10/22 01:36:27;;;;;;;189.13;179.60;;;;;;;;;;5028639;28;20478;-69
2021/10/22 01:38:56;;;;;;;199.67;189.77;;;;;;;;;;5034546;28;20463;-70
2021/10/22 01:41:23;;;;;;;189.70;180.20;;;;;;;;;;5032511;28;20999;-69
2021/10/22 01:43:50;;;;;;;186.77;177.37;;;;;;;;;;5033032;28;20444;-70
2021/10/22 01:46:18;;;;;;;190.07;180.67;;;;;;;;;;5029941;28;20997;-69
2021/10/22 01:48:47;;;;;;;193.27;183.63;;;;;;;;;;5033435;28;20448;-69
2021/10/22 01:51:14;;;;;;;194.10;184.23;;;;;;;;;;5031333;28;20492;-70
2021/10/22 01:53:41;;;;;;;190.77;180.83;;;;;;;;;;5032595;28;20954;-71
2021/10/22 01:56:09;;;;;;;198.90;188.90;;;;;;;;;;5021574;28;20472;-68
2021/10/22 01:58:36;;;;;;;194.70;184.93;;;;;;;;;;5028651;28;20449;-67
2021/10/22 02:01:04;;;;;;;202.47;192.40;;;;;;;;;;5027085;28;20485;-69
2021/10/22 02:03:31;;;;;;;197.90;187.57;;;;;;;;;;5016503;28;20468;-68
2021/10/22 02:05:58;;;;;;;198.83;188.50;;;;;;;;;;5031365;28;20456;-70
2021/10/22 02:08:25;;;;;;;204.37;194.13;;;;;;;;;;5033526;28;20510;-67
2021/10/22 02:10:52;;;;;;;210.27;199.70;;;;;;;;;;5031886;28;20448;-71
2021/10/22 02:13:21;;;;;;;204.40;193.87;;;;;;;;;;5032908;28;20452;-68
2021/10/22 02:15:48;;;;;;;207.47;197.07;;;;;;;;;;5032924;28;20459;-70
2021/10/22 02:18:15;;;;;;;220.70;209.60;;;;;;;;;;5033969;28;20447;-69
2021/10/22 02:20:42;;;;;;;222.73;211.93;;;;;;;;;;5037594;28;20480;-70
2021/10/22 02:23:09;;;;;;;229.20;218.10;;;;;;;;;;5036075;28;20486;-73
2021/10/22 02:25:37;;;;;;;220.23;208.93;;;;;;;;;;5026659;28;20453;-74
2021/10/22 02:28:04;;;;;;;221.20;209.70;;;;;;;;;;5017131;28;20449;-67
2021/10/22 02:30:32;;;;;;;209.87;199.27;;;;;;;;;;5024137;28;20455;-68
2021/10/22 02:33:00;;;;;;;212.60;201.70;;;;;;;;;;5036336;28;21005;-70
2021/10/22 02:35:27;;;;;;;209.30;198.90;;;;;;;;;;5033302;28;20452;-72
2021/10/22 02:37:54;;;;;;;214.97;204.37;;;;;;;;;;5026302;28;20449;-67
2021/10/22 02:40:21;;;;;;;216.40;205.50;;;;;;;;;;5017236;28;20493;-67
2021/10/22 02:42:48;;;;;;;214.57;203.47;;;;;;;;;;5020358;28;20469;-69
2021/10/22 02:45:16;;;;;;;226.60;215.10;;;;;;;;;;5035394;28;20455;-67
2021/10/22 02:47:45;;;;;;;225.23;213.93;;;;;;;;;;5034705;28;20519;-68
2021/10/22 02:50:12;;;;;;;221.60;209.80;;;;;;;;;;5036354;28;20455;-72
2021/10/22 02:52:39;;;;;;;217.07;205.60;;;;;;;;;;5028476;28;20849;-71
2021/10/22 02:55:07;;;;;;;228.10;216.90;;;;;;;;;;5015041;28;20457;-67
2021/10/22 02:57:34;;;;;;;216.20;204.90;;;;;;;;;;5015054;28;20941;-68
2021/10/22 03:00:01;;;;;;;225.37;214.10;;;;;;;;;;5014925;28;21030;-72
2021/10/22 03:02:28;;;;;;;222.60;211.30;;;;;;;;;;5015074;28;20837;-68
2021/10/22 03:04:57;;;;;;;234.50;222.20;;;;;;;;;;5034312;28;20468;-71
2021/10/22 03:07:24;;;;;;;229.07;217.17;;;;;;;;;;5034967;28;20940;-70
2021/10/22 03:09:51;;;;;;;249.60;237.20;;;;;;;;;;5033632;28;20452;-67
2021/10/22 03:12:18;;;;;;;250.67;238.00;;;;;;;;;;5032823;28;20476;-71
2021/10/22 03:14:45;;;;;;;238.77;226.60;;;;;;;;;;5033251;28;20994;-68
2021/10/22 03:17:12;;;;;;;233.40;221.43;;;;;;;;;;5034681;28;20452;-68
2021/10/22 03:19:39;;;;;;;238.60;226.50;;;;;;;;;;5033168;28;20455;-71
2021/10/22 03:22:08;;;;;;;245.83;233.27;;;;;;;;;;5034379;28;21151;-68
2021/10/22 03:24:35;;;;;;;229.07;216.97;;;;;;;;;;5033144;28;20456;-72
2021/10/22 03:27:04;;;;;;;235.70;223.50;;;;;;;;;;5034491;28;20448;-73
2021/10/22 03:29:31;;;;;;;237.17;224.37;;;;;;;;;;5020924;28;20490;-70
2021/10/22 03:31:58;;;;;;;243.77;231.13;;;;;;;;;;5013701;28;20472;-72
2021/10/22 03:34:25;;;;;;;241.13;228.40;;;;;;;;;;5025601;28;20460;-73
2021/10/22 03:36:52;;;;;;;235.10;222.43;;;;;;;;;;5033611;28;20455;-70
2021/10/22 03:39:21;;;;;;;253.57;239.90;;;;;;;;;;5022776;28;20460;-71
2021/10/22 03:41:48;;;;;;;247.10;233.73;;;;;;;;;;5013805;28;21019;-69
2021/10/22 03:44:15;;;;;;;255.10;241.17;;;;;;;;;;5023699;28;20480;-68
2021/10/22 03:46:42;;;;;;;249.10;235.50;;;;;;;;;;5033810;28;20448;-68
2021/10/22 03:49:09;;;;;;;250.47;236.67;;;;;;;;;;5028069;28;20963;-68
2021/10/22 03:51:36;;;;;;;263.70;249.70;;;;;;;;;;5026943;28;20472;-69
2021/10/22 03:54:04;;;;;;;263.20;249.53;;;;;;;;;;5027160;28;20955;-69
2021/10/22 03:56:32;;;;;;;257.70;244.00;;;;;;;;;;5033500;28;20453;-68
2021/10/22 03:58:59;;;;;;;260.80;246.70;;;;;;;;;;5033201;28;20948;-69
2021/10/22 04:01:26;;;;;;;252.77;239.17;;;;;;;;;;5033495;28;20498;-69
2021/10/22 04:03:53;;;;;;;247.10;233.30;;;;;;;;;;5033965;28;20452;-73
2021/10/22 04:06:20;;;;;;;261.07;246.17;;;;;;;;;;5032951;28;20484;-71
2021/10/22 04:08:47;;;;;;;260.00;245.70;;;;;;;;;;5033154;28;20450;-67
2021/10/22 04:11:14;;;;;;;243.77;229.73;;;;;;;;;;5054053;28;20468;-67
2021/10/22 04:13:43;;;;;;;279.10;263.87;;;;;;;;;;5048881;28;20471;-69
2021/10/22 04:16:10;;;;;;;259.93;244.83;;;;;;;;;;5013671;28;20449;-70
2021/10/22 04:18:37;;;;;;;252.37;236.93;;;;;;;;;;5013898;28;20445;-67
2021/10/22 04:21:05;;;;;;;251.20;236.00;;;;;;;;;;5013662;28;20989;-68
2021/10/22 04:23:32;;;;;;;253.37;238.40;;;;;;;;;;5013846;28;20441;-68
2021/10/22 04:25:59;;;;;;;258.77;242.57;;;;;;;;;;5013696;28;20450;-68
2021/10/22 04:28:26;;;;;;;256.53;240.97;;;;;;;;;;5020480;28;20967;-68
2021/10/22 04:30:54;;;;;;;309.50;292.87;;;;;;;;;;5032267;28;20453;-68
2021/10/22 04:33:21;;;;;;;264.10;248.30;;;;;;;;;;5033264;28;20471;-68
2021/10/22 04:35:48;;;;;;;252.53;236.33;;;;;;;;;;5015717;28;20460;-68
2021/10/22 04:41:03;;;;;;;256.57;240.73;;;;;;;;;;5013458;28;20485;-69
2021/10/22 04:43:31;;;;;;;287.43;270.87;;;;;;;;;;5012902;28;21212;-68
2021/10/22 04:45:59;;;;;;;254.80;238.73;;;;;;;;;;5020476;28;20467;-69
2021/10/22 04:48:27;;;;;;;264.30;247.73;;;;;;;;;;5032932;28;20457;-70
2021/10/22 04:50:54;;;;;;;254.27;238.27;;;;;;;;;;5016389;28;20445;-68
2021/10/22 04:53:25;;;;;;;257.40;241.30;;;;;;;;;;5013476;28;21012;-68
2021/10/22 04:55:53;;;;;;;265.90;249.13;;;;;;;;;;5013769;28;20469;-68
2021/10/22 04:58:20;;;;;;;273.00;255.90;;;;;;;;;;5013341;28;20449;-69
2021/10/22 05:00:47;;;;;;;272.00;255.17;;;;;;;;;;5013363;28;20996;-68
2021/10/22 05:03:15;;;;;;;254.83;238.30;;;;;;;;;;5013491;28;20445;-69
2021/10/22 05:05:42;;;;;;;245.97;229.33;;;;;;;;;;5012998;28;20475;-68
2021/10/22 05:08:09;;;;;;;223.57;208.13;;;;;;;;;;5013251;28;20450;-68
2021/10/22 05:10:36;;;;;;;232.63;217.33;;;;;;;;;;5013330;28;20975;-69
2021/10/22 05:13:04;;;;;;;231.73;216.23;;;;;;;;;;5013557;28;20484;-68
2021/10/22 05:15:31;;;;;;;331.30;308.20;;;;;;;;;;5023710;28;20838;-68
2021/10/22 05:17:58;;;;;;;234.83;219.00;;;;;;;;;;5035113;28;20451;-69
2021/10/22 05:20:26;;;;;;;214.70;200.03;;;;;;;;;;5044419;28;20447;-68
2021/10/22 05:22:53;;;;;;;221.93;206.67;;;;;;;;;;5043091;22;20493;-65
2021/10/22 05:25:20;;;;;;;235.83;220.17;;;;;;;;;;5004799;28;20841;-64
2021/10/22 05:27:48;;;;;;;208.43;192.93;;;;;;;;;;5010926;28;20810;-66
2021/10/22 05:30:16;;;;;;;210.50;195.70;;;;;;;;;;5021209;28;20476;-66
2021/10/22 05:32:43;;;;;;;213.07;197.97;;;;;;;;;;5011749;28;20841;-64
2021/10/22 05:35:10;;;;;;;215.83;200.93;;;;;;;;;;5010699;28;20450;-65
2021/10/22 05:37:39;;;;;;;147.50;136.33;;;;;;;;;;5011848;28;20980;-66
2021/10/22 05:40:07;;;;;;;131.93;122.30;;;;;;;;;;5011322;28;20441;-68
2021/10/22 05:42:35;;;;;;;136.73;126.07;;;;;;;;;;5010702;28;20496;-68
2021/10/22 05:45:02;;;;;;;227.60;212.33;;;;;;;;;;5011287;28;20445;-68
2021/10/22 05:47:29;;;;;;;313.63;292.77;;;;;;;;;;5010257;28;20985;-67
2021/10/22 05:49:56;;;;;;;445.40;415.93;;;;;;;;;;5011984;28;20451;-67
2021/10/22 05:52:23;;;;;;;555.97;520.73;;;;;;;;;;5008927;28;21003;-65
2021/10/22 05:54:52;;;;;;;584.20;546.30;;;;;;;;;;5013162;28;20480;-67
2021/10/22 05:57:19;;;;;;;610.00;572.53;;;;;;;;;;5014624;28;20461;-67
2021/10/22 05:59:46;;;;;;;561.30;525.10;;;;;;;;;;5014793;28;20449;-64
2021/10/22 06:02:13;;;;;;;515.10;480.90;;;;;;;;;;5012769;28;20492;-65
2021/10/22 06:04:40;;;;;;;446.77;413.60;;;;;;;;;;5009837;28;20587;-65
2021/10/22 06:07:07;;;;;;;478.10;446.23;;;;;;;;;;5014640;28;20465;-65
2021/10/22 06:09:34;;;;;;;484.93;452.90;;;;;;;;;;5012303;28;20476;-66
2021/10/22 06:12:02;;;;;;;437.17;410.43;;;;;;;;;;5015486;28;20446;-65
2021/10/22 06:14:30;;;;;;;367.80;343.43;;;;;;;;;;5012555;28;20476;-67
2021/10/22 06:16:57;;;;;;;372.47;347.80;;;;;;;;;;5016239;28;20488;-67
2021/10/22 06:19:29;;;;;;;369.50;345.03;;;;;;;;;;5015687;28;20473;-67
2021/10/22 06:22:09;;;;;;;372.20;350.27;;;;;;;;;;5014976;28;20470;-65
2021/10/22 06:24:37;;;;;;;380.67;356.13;;;;;;;;;;5027131;28;20444;-64
2021/10/22 06:27:06;;;;;;;360.10;338.00;;;;;;;;;;5016791;28;20548;-65
2021/10/22 06:29:33;;;;;;;359.77;338.20;;;;;;;;;;5016067;28;20473;-66
2021/10/22 06:32:01;;;;;;;376.23;354.93;;;;;;;;;;5015105;28;20484;-65
2021/10/22 06:34:28;;;;;;;360.40;340.27;;;;;;;;;;5009230;28;20470;-66
2021/10/22 06:36:56;;;;;;;346.67;326.77;;;;;;;;;;5007055;28;20557;-66
2021/10/22 06:39:23;;;;;;;357.17;339.80;;;;;;;;;;5017727;28;20905;-66
2021/10/22 06:41:51;;;;;;;344.43;327.23;;;;;;;;;;5015805;28;20560;-66
2021/10/22 06:44:23;;;;;;;367.63;350.10;;;;;;;;;;5013183;28;20520;-66
2021/10/22 06:46:51;;;;;;;354.37;338.90;;;;;;;;;;5014501;28;20461;-66
2021/10/22 06:49:18;;;;;;;353.93;338.03;;;;;;;;;;5013877;28;20504;-67
2021/10/22 06:51:45;;;;;;;382.97;366.47;;;;;;;;;;5014094;28;20453;-65
2021/10/22 06:54:12;;;;;;;355.00;339.60;;;;;;;;;;5009976;28;20484;-64
2021/10/22 06:56:39;;;;;;;277.17;264.47;;;;;;;;;;5005664;28;20937;-65
2021/10/22 06:59:07;;;;;;;308.43;294.57;;;;;;;;;;5016052;28;20453;-66
2021/10/22 07:01:35;;;;;;;338.10;322.97;;;;;;;;;;5013793;28;20485;-64
2021/10/22 07:04:02;;;;;;;378.57;356.30;;;;;;;;;;5013390;28;20469;-65
2021/10/22 07:09:14;;;;;;;419.13;392.63;;;;;;;;;;5015046;28;20440;-67
2021/10/22 07:11:41;;;;;;;401.07;374.73;;;;;;;;;;5022304;28;20457;-67
2021/10/22 07:14:09;;;;;;;406.10;379.73;;;;;;;;;;5013233;28;20465;-67
2021/10/22 07:16:39;;;;;;;397.90;372.80;;;;;;;;;;5000740;28;20450;-66
2021/10/22 07:19:07;;;;;;;399.67;375.13;;;;;;;;;;5011425;28;20803;-66
2021/10/22 07:21:38;;;;;;;407.10;380.60;;;;;;;;;;5013994;28;20547;-63
2021/10/22 07:24:12;;;;;;;395.63;372.43;;;;;;;;;;5012974;28;20505;-62
2021/10/22 07:26:40;;;;;;;420.13;393.53;;;;;;;;;;5016186;28;20438;-64
2021/10/22 07:29:07;;;;;;;424.47;396.70;;;;;;;;;;5013133;28;20464;-64
2021/10/22 07:31:34;;;;;;;430.27;404.10;;;;;;;;;;5013998;28;20449;-64
2021/10/22 07:34:03;;;;;;;405.23;380.40;;;;;;;;;;5013759;28;20529;-64
2021/10/22 07:36:30;;;;;;;409.07;382.87;;;;;;;;;;5014095;28;20508;-64
2021/10/22 07:38:57;;;;;;;403.60;380.27;;;;;;;;;;5013741;28;20449;-66
2021/10/22 07:41:25;;;;;;;408.97;383.40;;;;;;;;;;5013373;28;20482;-64
2021/10/22 07:43:52;;;;;;;347.43;327.53;;;;;;;;;;5013769;28;20466;-66
2021/10/22 07:46:19;;;;;;;417.03;390.00;;;;;;;;;;5013134;28;20450;-64
2021/10/22 07:48:46;;;;;;;434.93;409.73;;;;;;;;;;5013298;28;20485;-66
2021/10/22 07:51:14;;;;;;;442.63;414.40;;;;;;;;;;5013152;28;20457;-64
2021/10/22 07:53:42;;;;;;;423.40;396.07;;;;;;;;;;5013450;28;20477;-63
2021/10/22 07:56:09;;;;;;;428.33;400.13;;;;;;;;;;5013249;28;20453;-64
2021/10/22 07:58:36;;;;;;;401.13;376.43;;;;;;;;;;5013382;28;20457;-66
2021/10/22 08:01:03;;;;;;;360.40;339.30;;;;;;;;;;5013371;28;20472;-64
2021/10/22 08:03:32;;;;;;;358.53;338.63;;;;;;;;;;5013007;28;20493;-65
2021/10/22 08:05:59;;;;;;;352.57;332.27;;;;;;;;;;5013092;28;20869;-63
2021/10/22 08:08:28;;;;;;;371.93;349.27;;;;;;;;;;5012977;28;20454;-64
2021/10/22 08:10:56;;;;;;;366.60;344.47;;;;;;;;;;5012925;28;20459;-64
2021/10/22 08:13:24;;;;;;;340.00;320.80;;;;;;;;;;5013337;28;20807;-64
2021/10/22 08:15:51;;;;;;;302.93;284.90;;;;;;;;;;5015322;28;20451;-64
2021/10/22 08:18:18;;;;;;;310.60;291.80;;;;;;;;;;5011593;28;20465;-63
2021/10/22 08:20:49;;;;;;;323.23;304.77;;;;;;;;;;5013107;28;20453;-63
2021/10/22 08:23:16;;;;;;;354.70;333.60;;;;;;;;;;5012892;28;20513;-64
2021/10/22 08:25:45;;;;;;;358.60;336.70;;;;;;;;;;5013020;28;20453;-64
2021/10/22 08:28:12;;;;;;;358.60;336.47;;;;;;;;;;5013239;28;20460;-63
2021/10/22 08:30:39;;;;;;;400.07;374.17;;;;;;;;;;5013022;28;20456;-64
2021/10/22 08:33:09;;;;;;;390.13;366.40;;;;;;;;;;5012631;28;20477;-63
2021/10/22 08:35:37;;;;;;;400.40;375.13;;;;;;;;;;5013002;28;20460;-63
2021/10/22 08:38:06;;;;;;;407.60;382.50;;;;;;;;;;5012490;28;20457;-63
2021/10/22 08:40:33;;;;;;;405.53;378.97;;;;;;;;;;5011969;28;20845;-65
2021/10/22 08:43:02;;;;;;;429.73;401.87;;;;;;;;;;5012559;28;20571;-64
2021/10/22 08:45:29;;;;;;;424.50;395.83;;;;;;;;;;5012408;28;20446;-65
2021/10/22 08:47:57;;;;;;;444.60;415.10;;;;;;;;;;5012389;28;20465;-65
2021/10/22 08:50:24;;;;;;;450.43;419.73;;;;;;;;;;5012023;28;20453;-65
2021/10/22 08:52:52;;;;;;;426.37;398.80;;;;;;;;;;5011982;28;20476;-68
2021/10/22 08:55:20;;;;;;;403.50;377.40;;;;;;;;;;5011521;28;20450;-66
2021/10/22 08:57:48;;;;;;;390.37;365.97;;;;;;;;;;5011945;28;20449;-64
2021/10/22 09:00:17;;;;;;;407.40;381.60;;;;;;;;;;5012148;28;20450;-64
2021/10/22 09:02:47;;;;;;;360.90;339.97;;;;;;;;;;5012066;28;20493;-64
2021/10/22 09:05:15;;;;;;;378.37;354.90;;;;;;;;;;5012080;28;20454;-65
2021/10/22 09:07:43;;;;;;;382.60;358.63;;;;;;;;;;5008446;28;20472;-64
2021/10/22 09:10:13;;;;;;;253.97;238.37;;;;;;;;;;5012230;28;20456;-65
2021/10/22 09:12:42;;;;;;;317.23;298.53;;;;;;;;;;5015700;28;20481;-64
2021/10/22 09:15:09;;;;;;;318.33;300.23;;;;;;;;;;5004134;28;20675;-64
2021/10/22 09:17:38;;;;;;;307.40;289.10;;;;;;;;;;5011189;28;20975;-65
2021/10/22 09:20:07;;;;;;;304.90;287.23;;;;;;;;;;5011871;28;20457;-64
2021/10/22 09:22:34;;;;;;;302.53;284.87;;;;;;;;;;5011333;28;20485;-64
2021/10/22 09:25:04;;;;;;;256.83;241.50;;;;;;;;;;5015991;28;20475;-64
2021/10/22 09:27:32;;;;;;;257.73;242.77;;;;;;;;;;5027326;28;20461;-64
2021/10/22 09:29:59;;;;;;;264.47;249.53;;;;;;;;;;5012082;28;20454;-65
2021/10/22 09:32:26;;;;;;;247.30;232.70;;;;;;;;;;5011732;28;20469;-66
2021/10/22 09:34:55;;;;;;;231.07;217.63;;;;;;;;;;5011206;28;20949;-64
2021/10/22 09:37:22;;;;;;;203.07;190.97;;;;;;;;;;5018375;28;20453;-65
2021/10/22 09:39:49;;;;;;;158.90;148.70;;;;;;;;;;5031458;28;20820;-66
2021/10/22 09:42:17;;;;;;;261.23;246.77;;;;;;;;;;5015684;28;20489;-65
2021/10/22 09:44:45;;;;;;;250.27;236.77;;;;;;;;;;5011399;28;20456;-65
2021/10/22 09:47:19;;;;;;;140.90;131.40;;;;;;;;;;5008840;28;20480;-66
2021/10/22 09:49:48;;;;;;;151.17;141.20;;;;;;;;;;5010695;28;20540;-64
2021/10/22 09:52:18;;;;;;;153.70;143.90;;;;;;;;;;5011478;28;20536;-67
2021/10/22 09:54:46;;;;;;;159.23;149.50;;;;;;;;;;5011444;28;20480;-66
2021/10/22 09:57:16;;;;;;;153.60;143.60;;;;;;;;;;5011596;28;20453;-65
2021/10/22 09:59:44;;;;;;;160.67;150.50;;;;;;;;;;5010458;28;20482;-67
2021/10/22 10:02:12;;;;;;;173.40;162.63;;;;;;;;;;5011524;28;20493;-67
2021/10/22 10:04:39;;;;;;;166.87;156.87;;;;;;;;;;5010988;28;20496;-64
2021/10/22 10:07:06;;;;;;;168.53;158.00;;;;;;;;;;5011464;28;20434;-65
2021/10/22 10:09:37;;;;;;;162.30;151.80;;;;;;;;;;5011549;28;20492;-65
2021/10/22 10:12:04;;;;;;;151.87;142.07;;;;;;;;;;5007120;28;20470;-65
2021/10/22 10:14:32;;;;;;;156.90;147.00;;;;;;;;;;5022239;28;20818;-66
2021/10/22 10:17:00;;;;;;;152.23;142.33;;;;;;;;;;5009195;28;20485;-65
2021/10/22 10:19:28;;;;;;;153.80;143.50;;;;;;;;;;5005070;28;20454;-65
2021/10/22 10:21:56;;;;;;;144.83;135.53;;;;;;;;;;5011352;28;20456;-65
2021/10/22 10:24:30;;;;;;;140.80;131.60;;;;;;;;;;5010843;28;20457;-65
2021/10/22 10:27:09;;;;;;;138.93;130.03;;;;;;;;;;5007475;28;21128;-65
2021/10/22 10:29:39;;;;;;;144.40;135.70;;;;;;;;;;5010903;28;20449;-65
2021/10/22 10:32:06;;;;;;;132.10;123.40;;;;;;;;;;5011345;28;20446;-67
2021/10/22 10:34:44;;;;;;;134.50;125.70;;;;;;;;;;5006274;28;20465;-65
2021/10/22 10:37:22;;;;;;;135.20;126.90;;;;;;;;;;5009510;28;20458;-65
2021/10/22 10:39:54;;;;;;;138.10;129.17;;;;;;;;;;5015241;28;20827;-64
2021/10/22 10:42:25;;;;;;;138.10;129.30;;;;;;;;;;5013259;28;20490;-65
2021/10/22 10:44:52;;;;;;;135.40;126.70;;;;;;;;;;5014720;28;20442;-65
2021/10/22 10:47:39;;;;;;;135.77;126.90;;;;;;;;;;5013847;28;20472;-65
2021/10/22 10:50:07;;;;;;;138.47;129.70;;;;;;;;;;5014042;28;20806;-69
2021/10/22 10:52:48;;;;;;;133.90;125.20;;;;;;;;;;5013328;28;20521;-66
2021/10/22 10:55:19;;;;;;;128.13;120.07;;;;;;;;;;5013980;28;20469;-66
2021/10/22 10:57:49;;;;;;;128.30;120.00;;;;;;;;;;5014329;28;20473;-65
2021/10/22 11:00:17;;;;;;;169.30;159.23;;;;;;;;;;5013753;28;20556;-65
2021/10/22 11:03:02;;;;;;;217.23;205.53;;;;;;;;;;5012596;28;20485;-65
2021/10/22 11:05:44;;;;;;;233.83;221.43;;;;;;;;;;5016369;28;20468;-65
2021/10/22 11:08:13;;;;;;;221.53;209.67;;;;;;;;;;5014157;28;20457;-65
2021/10/22 11:10:57;;;;;;;229.77;217.53;;;;;;;;;;5012189;28;20465;-64
2021/10/22 11:13:26;;;;;;;202.27;190.97;;;;;;;;;;5000590;28;20857;-65
2021/10/22 11:15:53;;;;;;;219.10;207.30;;;;;;;;;;5005502;28;20978;-65
2021/10/22 11:18:21;;;;;;;216.73;205.10;;;;;;;;;;5014435;28;20529;-65
2021/10/22 11:20:49;;;;;;;214.00;201.70;;;;;;;;;;5012287;28;20911;-68
2021/10/22 11:23:16;;;;;;;206.43;195.07;;;;;;;;;;5035343;23;20951;-71
2021/10/22 11:25:43;;;;;;;242.50;229.43;;;;;;;;;;5016953;28;20500;-72
2021/10/22 11:28:12;;;;;;;246.87;233.37;;;;;;;;;;5015823;28;20956;-71
2021/10/22 11:30:53;;;;;;;248.47;234.83;;;;;;;;;;5021798;28;20867;-73
2021/10/22 11:33:21;;;;;;;247.87;233.97;;;;;;;;;;5018600;28;20487;-71
2021/10/22 11:35:49;;;;;;;238.07;224.70;;;;;;;;;;5018553;28;20467;-75
2021/10/22 11:38:16;;;;;;;250.90;236.90;;;;;;;;;;5020627;28;20540;-71
2021/10/22 11:40:44;;;;;;;254.03;240.00;;;;;;;;;;5019297;28;20940;-75
2021/10/22 11:43:11;;;;;;;253.60;239.93;;;;;;;;;;5015369;28;20496;-72
2021/10/22 11:45:38;;;;;;;274.87;259.97;;;;;;;;;;5018520;28;20453;-72
2021/10/22 11:48:10;;;;;;;270.13;255.20;;;;;;;;;;5018032;28;20465;-72
2021/10/22 11:50:37;;;;;;;257.33;243.00;;;;;;;;;;5020595;28;20472;-70
2021/10/22 11:53:09;;;;;;;255.40;240.90;;;;;;;;;;5019232;28;20485;-70
2021/10/22 11:55:38;;;;;;;237.17;223.97;;;;;;;;;;5020624;28;20894;-70
2021/10/22 11:58:06;;;;;;;232.70;219.67;;;;;;;;;;5019899;28;20461;-72
2021/10/22 12:00:33;;;;;;;247.17;233.80;;;;;;;;;;5020200;28;20474;-70
2021/10/22 12:03:00;;;;;;;243.80;230.50;;;;;;;;;;5018863;28;21004;-73
2021/10/22 12:05:30;;;;;;;236.73;223.80;;;;;;;;;;5019606;28;20841;-72
2021/10/22 12:07:58;;;;;;;240.33;227.33;;;;;;;;;;5020282;28;20552;-72
2021/10/22 12:10:25;;;;;;;245.87;232.27;;;;;;;;;;5014192;28;20476;-69
2021/10/22 12:12:53;;;;;;;267.83;253.30;;;;;;;;;;5013035;28;20504;-70
2021/10/22 12:15:21;;;;;;;267.83;252.87;;;;;;;;;;5016162;28;20465;-73
2021/10/22 12:17:52;;;;;;;264.57;250.17;;;;;;;;;;5017594;28;20466;-70
2021/10/22 12:20:20;;;;;;;267.53;253.40;;;;;;;;;;5019057;28;20441;-70
2021/10/22 12:22:56;;;;;;;253.03;239.47;;;;;;;;;;5018206;28;20490;-70
2021/10/22 12:25:24;;;;;;;246.20;232.93;;;;;;;;;;5016407;28;20449;-73
2021/10/22 12:27:51;;;;;;;226.57;214.17;;;;;;;;;;5020172;28;20444;-73
2021/10/22 12:30:19;;;;;;;219.77;207.63;;;;;;;;;;5019496;28;20450;-71
2021/10/22 12:32:48;;;;;;;212.50;200.80;;;;;;;;;;5020781;28;20466;-71
2021/10/22 12:35:18;;;;;;;218.23;206.13;;;;;;;;;;5021426;28;20458;-71
2021/10/22 12:37:47;;;;;;;214.50;202.63;;;;;;;;;;5020988;28;20437;-71
2021/10/22 12:40:23;;;;;;;213.43;201.73;;;;;;;;;;5021365;28;20978;-72
2021/10/22 12:43:07;;;;;;;215.17;203.57;;;;;;;;;;5019640;28;20983;-71
2021/10/22 12:45:35;;;;;;;218.63;206.90;;;;;;;;;;5018827;28;20457;-71
2021/10/22 12:48:07;;;;;;;200.40;189.20;;;;;;;;;;5020183;28;20758;-72
2021/10/22 12:50:35;;;;;;;207.37;195.87;;;;;;;;;;5021313;28;20449;-71
2021/10/22 12:53:03;;;;;;;192.53;181.53;;;;;;;;;;5018348;28;20477;-71
2021/10/22 12:55:32;;;;;;;198.87;188.27;;;;;;;;;;5018986;28;20452;-71
2021/10/22 12:58:18;;;;;;;205.07;194.13;;;;;;;;;;5018820;28;20453;-71
2021/10/22 13:00:47;;;;;;;188.57;178.27;;;;;;;;;;5019792;28;21028;-70
2021/10/22 13:03:14;;;;;;;185.53;175.30;;;;;;;;;;5010516;28;20993;-74
2021/10/22 13:05:42;;;;;;;190.37;179.67;;;;;;;;;;5017762;28;20477;-70
2021/10/22 13:08:33;;;;;;;203.73;192.53;;;;;;;;;;5019539;28;20504;-71
2021/10/22 13:14:19;;;;;;;219.87;208.27;;;;;;;;;;5013253;28;20477;-70
2021/10/22 13:22:16;;;;;;;261.60;247.60;;;;;;;;;;5018890;28;20457;-75
2021/10/22 13:24:43;;;;;;;271.93;257.10;;;;;;;;;;5015756;28;20903;-74
2021/10/22 13:27:11;;;;;;;284.90;269.47;;;;;;;;;;5013031;28;20475;-75
2021/10/22 13:29:39;;;;;;;330.87;312.43;;;;;;;;;;5014064;28;21092;-79
2021/10/22 13:32:06;;;;;;;447.53;417.17;;;;;;;;;;5012210;28;20452;-73
2021/10/22 13:34:33;;;;;;;547.07;506.87;;;;;;;;;;5011806;28;20485;-71
2021/10/22 13:37:01;;;;;;;487.33;453.03;;;;;;;;;;5012251;28;20457;-70
2021/10/22 13:39:28;;;;;;;567.47;526.87;;;;;;;;;;5011336;28;20476;-70
2021/10/22 13:41:55;;;;;;;556.77;515.30;;;;;;;;;;5012098;28;20480;-70
2021/10/22 13:44:22;;;;;;;530.73;494.30;;;;;;;;;;5012151;28;20489;-70
2021/10/22 13:46:50;;;;;;;532.27;495.27;;;;;;;;;;5012225;28;20457;-71
2021/10/22 13:49:18;;;;;;;510.73;476.40;;;;;;;;;;5012100;28;20480;-70
2021/10/22 13:51:45;;;;;;;499.23;466.27;;;;;;;;;;5011831;28;20456;-69
2021/10/22 13:54:12;;;;;;;506.73;472.53;;;;;;;;;;5012627;28;20501;-69
2021/10/22 13:56:40;;;;;;;487.03;454.23;;;;;;;;;;5012160;28;20469;-69
2021/10/22 13:59:07;;;;;;;423.93;395.47;;;;;;;;;;5012903;28;20462;-73
2021/10/22 14:01:34;;;;;;;447.17;417.33;;;;;;;;;;5012478;28;20446;-72
2021/10/22 14:04:03;;;;;;;365.10;343.10;;;;;;;;;;5012566;28;20489;-69
2021/10/22 14:06:35;;;;;;;483.43;449.30;;;;;;;;;;5013454;28;20462;-73
2021/10/22 14:09:03;;;;;;;361.57;339.67;;;;;;;;;;5012294;28;20457;-72
2021/10/22 14:11:32;;;;;;;358.40;335.50;;;;;;;;;;5010455;28;20442;-70